Aviation

Metar/Speci

station

VRMH

METAR VRMH 242300Z 26007KT 9999 FEW018TCU BKN120 27/25 Q1009=

38 minutes ago

VRMM

METAR VRMM 242300Z 30008KT 9999 FEW017TCU BKN110 28/24 Q1009 TEMPO 4000 SHRA=

41 minutes ago

VRMK

METAR VRMK 242300Z 33007KT 9999 FEW018TCU BKN120 27/24 Q1008=

32 minutes ago

VRMT

METAR VRMT 242300Z 32005KT 9999 FEW018TCU BKN250 27/25 Q1008=

34 minutes ago

VRMG

SPECI VRMG 242320Z 33010KT 3000 SHRA FEW016 FEW017CB BKN100 26/25 Q1009 CB SW,NW,OVHD TEMPO 3000 TSRA=

11 minutes ago

Synop

station

43533

AAXX 24214 43533 41462 62509 10275 20249 30097 40099 70282 8227/ 333 58011 82817 85361=

2 hours ago

43555

AAXX 24214 43555 41460 73206 10272 20237 30096 40098 72165 8222/ 333 58011 82817 87461=

2 hours ago

43577

AAXX 24214 43577 42461 73405 10271 20244 30089 40091 8227 333 58000 82818 87462=

2 hours ago

43588

AAXX 24214 43588 42460 73607 10274 20252 30086 40087 8227/ 333 59004 82818 87362=

2 hours ago

43599

AAXX 24214 43599 42460 83403 10276 20260 30090 40092 82277 333 59007 82817 84361 88274=

2 hours ago

Tafs

station

VRMH

VRMH 242300Z 2500/2606 29010KT 9999 FEW018TCU BKN120 TEMPO 2501/2507 5000 TSRA FEW017CB=

24 minutes ago

VRMM

VRMM 242300Z 2500/2606 29013KT 9999 FEW018TCU BKN120 TEMPO 2503/2509 25015G30KT 5000 SHRA FEW017CB=

24 minutes ago

VRMK

VRMK 242300Z 2500/2524 28008KT 9999 FEW018TCU BKN120 TEMPO 2503/2509 5000 SHRA FEW017CB=

24 minutes ago

VRMT

VRMT 242300Z 2500/2524 27011KT 9999 FEW018TCU BKN120 TEMPO 2502/2508 5000 SHRA FEW017CB=

24 minutes ago

VRMG

VRMG 242300Z 2500/2606 27008KT 9999 FEW018TCU BKN120 TEMPO 2500/2506 5000 SHRA FEW017CB=

24 minutes ago

Sigmet

Flight folders

No flight folder available at the moment.